RYR1YP EGPH-LPPR
Flight info
| Callsign | RYR1YP |
|---|---|
| Flight time | N/A |
| Altitude | 34000 |
| Route | GOSAM DCT TRN DCT DEGOS/M075F340 DCT LASNO T9 BEGAS/N0438F340 DCT ELTEP T328 ASPOR |
| Aircraft | B738/M-SDE2E3FGHIRWXY/LB1 |
Departure
| Time | 2026-05-04 09:01 |
|---|---|
| Airport | Edinburgh Airport (EGPH) |
Arrival
| Time | N/A |
|---|---|
| Airport | Francisco de Sá Carneiro Airport (LPPR) |
| Time | Latitude | Longitude | Altitude | Speed | Heading |
|---|---|---|---|---|---|
| 2026-05-04 08:40 | 55.94861 | -3.35939 | 115 ft | 0 kts | 208° |
| 2026-05-04 08:52 | 55.94864 | -3.35936 | 115 ft | 3 kts | 208° |
| 2026-05-04 08:52 | 55.94887 | -3.35913 | 112 ft | 4 kts | 208° |
| 2026-05-04 08:52 | 55.94907 | -3.35893 | 112 ft | 4 kts | 211° |
| 2026-05-04 08:53 | 55.94926 | -3.35864 | 112 ft | 4 kts | 251° |
| 2026-05-04 08:54 | 55.94910 | -3.35784 | 112 ft | 0 kts | 299° |
| 2026-05-04 08:55 | 55.94914 | -3.35798 | 111 ft | 3 kts | 298° |
| 2026-05-04 08:55 | 55.94942 | -3.35848 | 112 ft | 9 kts | 328° |
| 2026-05-04 08:57 | 55.95390 | -3.35525 | 113 ft | 17 kts | 59° |
| 2026-05-04 09:01 | 55.89773 | -3.57453 | 4877 ft | 252 kts | 261° |
| 2026-05-04 09:01 | 55.89479 | -3.60540 | 5591 ft | 252 kts | 262° |
| 2026-05-04 09:01 | 55.89173 | -3.63653 | 5994 ft | 256 kts | 261° |
| 2026-05-04 09:01 | 55.88863 | -3.66789 | 6651 ft | 258 kts | 261° |
| 2026-05-04 09:02 | 55.88546 | -3.69953 | 7400 ft | 261 kts | 261° |
| 2026-05-04 09:02 | 55.88224 | -3.73154 | 8117 ft | 264 kts | 261° |
| 2026-05-04 09:02 | 55.87895 | -3.76399 | 8845 ft | 269 kts | 261° |
| 2026-05-04 09:02 | 55.87562 | -3.79695 | 9646 ft | 271 kts | 262° |
| 2026-05-04 09:03 | 55.87231 | -3.83025 | 10337 ft | 277 kts | 261° |
| 2026-05-04 09:03 | 55.86883 | -3.86538 | 10574 ft | 300 kts | 262° |
| 2026-05-04 09:03 | 55.86509 | -3.90311 | 10918 ft | 317 kts | 261° |